Time;durP1;ratioP1;P1;durP2;ratioP2;P2;SDS_P1;SDS_P2;PMS_P1;PMS_P2;Temp;Humidity;BMP_temperature;BMP_pressure;BME280_temperature;BME280_humidity;BME280_pressure;Samples;Min_cycle;Max_cycle;Signal;HPM_P1;HPM_P2
2023/09/20 00:01:51;;;;;;;0.67;0.40;;;16.10;58.30;;;;;;5116649;28;20514;-59
2023/09/20 00:04:18;;;;;;;0.80;0.40;;;16.20;9.10;;;;;;5116051;28;20424;-60
2023/09/20 00:06:46;;;;;;;0.80;0.30;;;16.30;1.00;;;;;;5117147;28;20473;-59
2023/09/20 00:09:14;;;;;;;0.70;0.30;;;16.30;39.70;;;;;;5115891;28;20843;-60
2023/09/20 00:11:43;;;;;;;1.10;0.40;;;16.30;64.40;;;;;;5115565;28;20462;-60
2023/09/20 00:14:10;;;;;;;2.40;0.33;;;16.30;58.80;;;;;;5115013;28;20443;-60
2023/09/20 00:16:39;;;;;;;0.80;0.30;;;16.40;1.00;;;;;;5116498;28;20469;-59
2023/09/20 00:19:06;;;;;;;0.70;0.40;;;16.40;1.00;;;;;;5115937;28;20430;-59
2023/09/20 00:21:34;;;;;;;0.80;0.30;;;16.40;1.00;;;;;;5116408;28;20431;-60
2023/09/20 00:24:04;;;;;;;0.60;0.30;;;16.50;1.00;;;;;;5115923;28;20627;-59
2023/09/20 00:26:32;;;;;;;0.70;0.38;;;16.50;1.00;;;;;;5115798;28;20509;-60
2023/09/20 00:29:04;;;;;;;0.60;0.30;;;16.50;1.00;;;;;;5116046;28;20428;-59
2023/09/20 00:31:32;;;;;;;0.90;0.30;;;16.50;1.00;;;;;;5116348;28;20481;-59
2023/09/20 00:34:03;;;;;;;0.60;0.30;;;16.60;1.00;;;;;;5099340;28;20867;-60
2023/09/20 00:36:30;;;;;;;0.75;0.30;;;16.50;1.00;;;;;;5116232;28;20828;-59
2023/09/20 00:38:58;;;;;;;0.90;0.30;;;16.60;1.00;;;;;;5108732;28;20430;-60
2023/09/20 00:41:26;;;;;;;0.68;0.30;;;16.50;1.00;;;;;;5106459;28;20412;-59
2023/09/20 00:43:54;;;;;;;0.80;0.30;;;16.40;45.30;;;;;;5115668;28;20868;-59
2023/09/20 00:46:21;;;;;;;0.50;0.30;;;16.30;99.90;;;;;;5115245;28;20432;-59
2023/09/20 00:48:50;;;;;;;0.70;0.30;;;16.30;99.90;;;;;;5115693;28;20514;-60
2023/09/20 00:51:21;;;;;;;0.60;0.30;;;16.30;99.90;;;;;;5115665;28;20839;-59
2023/09/20 00:53:49;;;;;;;1.10;0.40;;;16.20;99.90;;;;;;5111498;28;20709;-58
2023/09/20 00:56:16;;;;;;;0.60;0.40;;;16.20;99.90;;;;;;5103401;28;20413;-58
2023/09/20 00:58:45;;;;;;;0.40;0.30;;;16.10;99.90;;;;;;5115623;28;20430;-60
2023/09/20 01:01:12;;;;;;;0.50;0.30;;;16.10;99.90;;;;;;5116123;28;20452;-59
2023/09/20 01:03:42;;;;;;;0.60;0.30;;;16.10;99.90;;;;;;5115807;28;20420;-59
2023/09/20 01:06:09;;;;;;;0.80;0.30;;;16.20;99.90;;;;;;5115523;28;20481;-59
2023/09/20 01:08:38;;;;;;;0.60;0.30;;;16.30;99.90;;;;;;5114605;28;20417;-59
2023/09/20 01:11:05;;;;;;;2.60;0.30;;;16.40;99.90;;;;;;5100784;28;20418;-58
2023/09/20 01:13:32;;;;;;;0.80;0.30;;;16.40;21.60;;;;;;5115885;28;20453;-60
2023/09/20 01:16:01;;;;;;;1.02;0.30;;;16.40;52.10;;;;;;5115276;28;20724;-59
2023/09/20 01:18:28;;;;;;;0.80;0.30;;;16.40;1.00;;;;;;5098831;28;20854;-59
2023/09/20 01:20:55;;;;;;;0.50;0.30;;;16.40;1.00;;;;;;5113347;28;20423;-59
2023/09/20 01:23:24;;;;;;;0.60;0.30;;;16.40;1.00;;;;;;5114377;28;20434;-59
2023/09/20 01:25:51;;;;;;;0.60;0.30;;;16.40;1.00;;;;;;5118306;28;20439;-60
2023/09/20 01:28:18;;;;;;;0.60;0.30;;;16.40;32.60;;;;;;5118515;28;20424;-60
2023/09/20 01:30:50;;;;;;;1.30;0.30;;;16.30;1.00;;;;;;5118102;28;20423;-60
2023/09/20 01:33:17;;;;;;;0.55;0.30;;;16.30;56.30;;;;;;5119720;28;20420;-58
2023/09/20 01:35:45;;;;;;;0.60;0.30;;;16.20;99.90;;;;;;5119523;28;20411;-59
2023/09/20 01:38:12;;;;;;;0.50;0.30;;;16.20;99.90;;;;;;5119325;28;20888;-60
2023/09/20 01:40:41;;;;;;;1.70;0.30;;;16.20;99.90;;;;;;5119232;28;20424;-60
2023/09/20 01:43:08;;;;;;;0.83;0.30;;;16.20;99.90;;;;;;5118056;28;20519;-58
2023/09/20 01:45:36;;;;;;;0.70;0.30;;;16.20;99.90;;;;;;5117910;28;20424;-60
2023/09/20 01:48:06;;;;;;;0.60;0.30;;;16.20;99.90;;;;;;5117390;28;20830;-58
2023/09/20 01:50:34;;;;;;;0.63;0.30;;;16.20;99.90;;;;;;5118591;28;20504;-59
2023/09/20 01:53:05;;;;;;;0.70;0.30;;;16.20;99.90;;;;;;5117510;28;20438;-60
2023/09/20 01:55:32;;;;;;;0.50;0.30;;;16.20;99.90;;;;;;5116475;28;20430;-58
2023/09/20 01:58:03;;;;;;;0.80;0.40;;;16.20;99.90;;;;;;5118201;28;20424;-59
2023/09/20 02:00:36;;;;;;;0.80;0.30;;;16.20;99.90;;;;;;5119148;28;20424;-60
2023/09/20 02:03:10;;;;;;;0.50;0.30;;;16.10;99.90;;;;;;5110480;28;20438;-59
2023/09/20 02:05:37;;;;;;;0.60;0.30;;;16.10;99.90;;;;;;5112911;28;20851;-60
2023/09/20 02:08:07;;;;;;;0.60;0.30;;;16.10;99.90;;;;;;5118265;28;20419;-60
2023/09/20 02:10:36;;;;;;;0.90;0.30;;;16.20;99.90;;;;;;5118574;28;20420;-59
2023/09/20 02:13:06;;;;;;;1.10;0.30;;;16.30;99.90;;;;;;5118613;28;20735;-58
2023/09/20 02:15:35;;;;;;;0.90;0.30;;;16.30;29.20;;;;;;5118065;28;20443;-59
2023/09/20 02:18:05;;;;;;;0.70;0.30;;;16.20;75.00;;;;;;5117984;28;20428;-58
2023/09/20 02:20:34;;;;;;;1.13;0.35;;;16.20;99.90;;;;;;5118421;28;20412;-59
2023/09/20 02:23:03;;;;;;;0.60;0.30;;;16.20;95.00;;;;;;5118578;28;20420;-59
2023/09/20 02:25:30;;;;;;;0.50;0.30;;;16.20;10.90;;;;;;5118642;28;20510;-59
2023/09/20 02:27:58;;;;;;;0.60;0.30;;;16.20;36.50;;;;;;5118235;28;20431;-61
2023/09/20 02:30:32;;;;;;;0.63;0.30;;;16.20;99.90;;;;;;5118094;28;20425;-61
2023/09/20 02:33:00;;;;;;;0.60;0.30;;;16.10;99.90;;;;;;5118494;28;20430;-59
2023/09/20 02:35:29;;;;;;;0.60;0.30;;;16.10;99.90;;;;;;5117729;28;20408;-60
2023/09/20 02:37:58;;;;;;;0.60;0.30;;;16.10;99.90;;;;;;5118221;28;20428;-60
2023/09/20 02:40:26;;;;;;;0.60;0.40;;;16.00;99.90;;;;;;5117532;28;20424;-59
2023/09/20 02:42:55;;;;;;;0.50;0.30;;;16.00;99.90;;;;;;5118191;28;20531;-59
2023/09/20 02:45:23;;;;;;;0.77;0.30;;;16.00;99.90;;;;;;5118282;28;20472;-60
2023/09/20 02:47:52;;;;;;;1.90;0.30;;;16.10;99.90;;;;;;5117958;28;20412;-59
2023/09/20 02:50:22;;;;;;;1.10;0.30;;;16.00;99.90;;;;;;5117541;28;20472;-60
2023/09/20 02:52:51;;;;;;;0.60;0.30;;;15.90;99.90;;;;;;5117279;28;20457;-60
2023/09/20 02:55:20;;;;;;;0.90;0.30;;;15.90;99.90;;;;;;5118039;28;20416;-59
2023/09/20 02:57:51;;;;;;;0.40;0.30;;;16.00;99.90;;;;;;5117820;28;20732;-61
2023/09/20 03:00:21;;;;;;;0.77;0.37;;;16.00;99.90;;;;;;5117429;28;20827;-60
2023/09/20 03:02:52;;;;;;;0.70;0.30;;;15.90;99.90;;;;;;5117723;28;20412;-60
2023/09/20 03:05:21;;;;;;;1.58;0.40;;;15.90;99.90;;;;;;5117382;28;20404;-57
2023/09/20 03:07:50;;;;;;;0.70;0.40;;;15.80;1.00;;;;;;5118009;28;20510;-60
2023/09/20 03:10:19;;;;;;;0.70;0.30;;;15.70;1.00;;;;;;5117582;28;20500;-58
2023/09/20 03:12:48;;;;;;;1.33;0.40;;;15.70;1.00;;;;;;5117180;28;20523;-59
2023/09/20 03:15:17;;;;;;;1.95;0.30;;;15.70;1.00;;;;;;5117792;28;20416;-59
2023/09/20 03:17:45;;;;;;;0.50;0.30;;;15.60;1.00;;;;;;5114249;28;20778;-58
2023/09/20 03:20:16;;;;;;;1.17;0.30;;;15.60;1.00;;;;;;5104161;28;20419;-58
2023/09/20 03:22:43;;;;;;;1.60;0.40;;;15.60;1.00;;;;;;5117086;28;20463;-60
2023/09/20 03:25:12;;;;;;;0.50;0.30;;;15.60;1.00;;;;;;5117457;28;20426;-59
2023/09/20 03:27:40;;;;;;;0.55;0.30;;;15.60;1.00;;;;;;5117282;28;20854;-58
2023/09/20 03:30:11;;;;;;;1.10;0.30;;;15.60;1.00;;;;;;5117040;28;20428;-59
2023/09/20 03:32:39;;;;;;;0.60;0.30;;;15.70;1.00;;;;;;5116428;28;20423;-59
2023/09/20 03:35:08;;;;;;;0.70;0.40;;;15.70;1.00;;;;;;5116853;28;20526;-58
2023/09/20 03:37:38;;;;;;;0.60;0.30;;;15.70;1.00;;;;;;5117685;28;20420;-59
2023/09/20 03:40:10;;;;;;;0.60;0.30;;;15.70;1.00;;;;;;5116390;28;20477;-59
2023/09/20 03:42:39;;;;;;;0.50;0.30;;;15.80;1.00;;;;;;5116871;28;20543;-58
2023/09/20 03:45:09;;;;;;;0.50;0.20;;;15.80;1.00;;;;;;5114900;28;20476;-60
2023/09/20 03:47:36;;;;;;;0.50;0.30;;;15.80;1.00;;;;;;5115642;28;20420;-60
2023/09/20 03:50:03;;;;;;;0.60;0.30;;;15.70;1.00;;;;;;5116750;28;20412;-58
2023/09/20 03:52:30;;;;;;;0.70;0.30;;;15.70;1.00;;;;;;5116332;28;20420;-59
2023/09/20 03:54:59;;;;;;;0.55;0.30;;;15.60;1.00;;;;;;5116480;28;20427;-62
2023/09/20 03:57:27;;;;;;;0.60;0.30;;;15.70;1.00;;;;;;5116381;28;20513;-59
2023/09/20 03:59:54;;;;;;;0.70;0.40;;;15.70;1.00;;;;;;5115907;28;20842;-56
2023/09/20 04:02:23;;;;;;;0.80;0.40;;;15.70;1.00;;;;;;5116081;28;20712;-60
2023/09/20 04:04:51;;;;;;;0.60;0.30;;;15.70;1.00;;;;;;5115426;28;20481;-60
2023/09/20 04:07:18;;;;;;;0.73;0.35;;;15.60;1.00;;;;;;5115213;28;20765;-59
2023/09/20 04:09:45;;;;;;;1.13;0.40;;;15.70;1.00;;;;;;5115693;28;20515;-60
2023/09/20 04:12:15;;;;;;;0.60;0.30;;;15.70;1.00;;;;;;5116003;28;20427;-61
2023/09/20 04:14:42;;;;;;;0.80;0.40;;;15.70;1.00;;;;;;5116641;28;20716;-57
2023/09/20 04:17:10;;;;;;;0.70;0.30;;;15.90;1.00;;;;;;5117206;28;20411;-59
2023/09/20 04:19:39;;;;;;;0.50;0.25;;;15.90;99.90;;;;;;5116301;28;20851;-58
2023/09/20 04:22:06;;;;;;;0.60;0.30;;;16.00;99.90;;;;;;5115297;28;20424;-57
2023/09/20 04:24:34;;;;;;;0.60;0.30;;;16.00;99.90;;;;;;5114735;28;20416;-58
2023/09/20 04:27:02;;;;;;;1.00;0.40;;;15.90;99.90;;;;;;5114580;28;20867;-58
2023/09/20 04:29:31;;;;;;;0.70;0.40;;;15.90;99.90;;;;;;5113880;28;20720;-57
2023/09/20 04:31:58;;;;;;;0.70;0.40;;;15.90;99.90;;;;;;5113253;28;20503;-57
2023/09/20 04:34:26;;;;;;;0.70;0.40;;;15.80;99.90;;;;;;5113397;28;20684;-58
2023/09/20 04:36:53;;;;;;;0.77;0.30;;;15.80;99.90;;;;;;5113024;28;20506;-59
2023/09/20 04:39:21;;;;;;;0.70;0.38;;;15.70;99.90;;;;;;5113494;28;20423;-60
2023/09/20 04:41:48;;;;;;;0.80;0.40;;;15.70;99.90;;;;;;5114085;28;20427;-58
2023/09/20 04:44:15;;;;;;;0.70;0.40;;;15.60;1.00;;;;;;5112606;28;20426;-59
2023/09/20 04:46:44;;;;;;;0.80;0.40;;;15.60;1.00;;;;;;5113448;28;20432;-59
2023/09/20 04:49:11;;;;;;;0.65;0.30;;;15.60;1.00;;;;;;5115323;28;20424;-59
2023/09/20 04:51:38;;;;;;;0.60;0.30;;;15.60;1.00;;;;;;5114890;28;20420;-59
2023/09/20 04:54:07;;;;;;;0.60;0.30;;;15.70;1.00;;;;;;5113974;28;20692;-58
2023/09/20 04:56:34;;;;;;;0.50;0.30;;;15.70;1.00;;;;;;5113705;28;20424;-59
2023/09/20 04:59:04;;;;;;;0.60;0.35;;;15.80;1.00;;;;;;5112144;28;20412;-58
2023/09/20 05:01:31;;;;;;;0.65;0.40;;;15.80;99.90;;;;;;5112372;28;20509;-58
2023/09/20 05:04:00;;;;;;;0.80;0.30;;;15.80;99.90;;;;;;5094977;28;20427;-59
2023/09/20 05:06:27;;;;;;;0.70;0.40;;;15.80;99.90;;;;;;5112243;28;20525;-58
2023/09/20 05:08:54;;;;;;;0.80;0.40;;;15.80;99.90;;;;;;5112566;28;20693;-59
2023/09/20 05:11:22;;;;;;;0.60;0.30;;;15.80;99.90;;;;;;5113350;28;20450;-55
2023/09/20 05:13:49;;;;;;;0.80;0.30;;;15.80;99.90;;;;;;5114577;28;20423;-57
2023/09/20 05:16:18;;;;;;;1.50;0.40;;;15.70;99.90;;;;;;5114642;28;20718;-57
2023/09/20 05:18:45;;;;;;;0.60;0.30;;;15.60;99.90;;;;;;5112832;28;21472;-57
2023/09/20 05:21:14;;;;;;;0.70;0.30;;;15.60;1.00;;;;;;5111462;28;20422;-55
2023/09/20 05:23:41;;;;;;;1.20;0.30;;;15.50;1.00;;;;;;5112405;28;20846;-56
2023/09/20 05:26:08;;;;;;;0.80;0.40;;;15.50;1.00;;;;;;5111164;28;20468;-55
2023/09/20 05:28:36;;;;;;;0.70;0.30;;;15.50;1.00;;;;;;5122665;28;20425;-54
2023/09/20 05:31:05;;;;;;;0.50;0.40;;;15.40;1.00;;;;;;5131241;28;20841;-56
2023/09/20 05:33:32;;;;;;;0.50;0.30;;;15.50;1.00;;;;;;5129568;28;20849;-53
2023/09/20 05:35:59;;;;;;;0.60;0.30;;;15.60;1.00;;;;;;5130600;28;20427;-57
2023/09/20 05:38:28;;;;;;;2.00;0.40;;;15.70;1.00;;;;;;5132688;28;20415;-55
2023/09/20 05:40:55;;;;;;;2.22;0.40;;;15.70;1.00;;;;;;5130888;28;20524;-57
2023/09/20 05:43:22;;;;;;;1.00;0.35;;;15.70;1.00;;;;;;5131191;28;20714;-54
2023/09/20 05:45:49;;;;;;;0.95;0.40;;;15.60;1.00;;;;;;5132942;28;20721;-57
2023/09/20 05:48:17;;;;;;;0.60;0.40;;;15.70;1.00;;;;;;5132599;28;20419;-57
2023/09/20 05:50:45;;;;;;;0.60;0.30;;;15.70;1.00;;;;;;5132388;28;20410;-55
2023/09/20 05:53:12;;;;;;;0.60;0.30;;;15.70;1.00;;;;;;5131085;28;20839;-57
2023/09/20 05:55:43;;;;;;;0.60;0.30;;;15.70;1.00;;;;;;5132308;28;20414;-56
2023/09/20 05:58:12;;;;;;;0.60;0.40;;;15.70;1.00;;;;;;5132659;28;20414;-56
2023/09/20 06:00:39;;;;;;;0.60;0.33;;;15.80;1.00;;;;;;5131003;28;20423;-55
2023/09/20 06:03:07;;;;;;;0.68;0.40;;;15.90;1.00;;;;;;5131096;28;20431;-58
2023/09/20 06:05:37;;;;;;;0.80;0.40;;;15.90;1.00;;;;;;5132192;28;20417;-55
2023/09/20 06:08:06;;;;;;;1.27;0.40;;;16.00;1.00;;;;;;5135964;27;20422;-56
2023/09/20 06:10:33;;;;;;;0.60;0.30;;;16.00;1.00;;;;;;5131303;27;20427;-53
2023/09/20 06:13:02;;;;;;;1.00;0.40;;;16.00;1.00;;;;;;5133924;27;20895;-54
2023/09/20 06:15:29;;;;;;;0.60;0.40;;;16.10;1.00;;;;;;5134010;27;20514;-55
2023/09/20 06:17:56;;;;;;;0.60;0.35;;;16.10;1.00;;;;;;5144918;27;20456;-52
2023/09/20 06:20:24;;;;;;;1.40;0.40;;;16.20;99.90;;;;;;5151958;27;20688;-55
2023/09/20 06:22:52;;;;;;;0.77;0.40;;;16.20;99.90;;;;;;5150783;27;20437;-53
2023/09/20 06:25:20;;;;;;;1.08;0.40;;;16.30;99.90;;;;;;5153937;27;20477;-53
2023/09/20 06:27:50;;;;;;;0.60;0.30;;;16.50;99.90;;;;;;5143831;27;20430;-55
2023/09/20 06:30:20;;;;;;;0.52;0.40;;;16.60;99.90;;;;;;5134586;27;20432;-54
2023/09/20 06:32:48;;;;;;;0.80;0.40;;;16.80;99.90;;;;;;5141369;27;20428;-55
2023/09/20 06:35:19;;;;;;;1.00;0.40;;;16.90;99.90;;;;;;5138108;27;20427;-51
2023/09/20 06:37:47;;;;;;;0.50;0.30;;;17.00;99.90;;;;;;5111612;27;20744;-50
2023/09/20 06:40:22;;;;;;;0.80;0.30;;;17.10;99.90;;;;;;5151792;27;20709;-55
2023/09/20 06:42:50;;;;;;;0.60;0.40;;;17.30;99.90;;;;;;5152160;27;20425;-55
2023/09/20 06:45:19;;;;;;;1.02;0.40;;;17.40;99.90;;;;;;5151712;27;20792;-55
2023/09/20 06:47:46;;;;;;;0.60;0.40;;;17.50;99.90;;;;;;5152506;27;20421;-53
2023/09/20 06:50:14;;;;;;;0.70;0.40;;;17.50;99.90;;;;;;5150893;27;20858;-52
2023/09/20 06:52:42;;;;;;;0.60;0.40;;;17.50;99.90;;;;;;5149089;27;20878;-55
2023/09/20 06:55:13;;;;;;;0.90;0.40;;;17.60;99.90;;;;;;5137496;27;20492;-53
2023/09/20 06:57:41;;;;;;;0.90;0.40;;;17.60;99.90;;;;;;5134738;27;20436;-55
2023/09/20 07:00:18;;;;;;;0.52;0.30;;;17.60;99.90;;;;;;5132425;27;21120;-56
2023/09/20 07:02:48;;;;;;;2.00;0.40;;;17.60;99.90;;;;;;5130320;27;20454;-56
2023/09/20 07:05:17;;;;;;;0.90;0.30;;;17.80;99.90;;;;;;5126712;27;20432;-56
2023/09/20 07:07:45;;;;;;;1.10;0.30;;;17.80;99.90;;;;;;5147727;27;20436;-52
2023/09/20 07:10:15;;;;;;;1.00;0.30;;;18.00;99.90;;;;;;5133402;27;20453;-56
2023/09/20 07:12:42;;;;;;;0.70;0.40;;;18.20;99.90;;;;;;5136352;27;20441;-55
2023/09/20 07:15:14;;;;;;;0.70;0.30;;;18.30;99.90;;;;;;5135193;27;20415;-55
2023/09/20 07:17:42;;;;;;;0.65;0.30;;;18.40;99.90;;;;;;5153201;27;20575;-54
2023/09/20 07:20:15;;;;;;;0.60;0.40;;;18.50;99.90;;;;;;5129833;27;20424;-56
2023/09/20 07:22:43;;;;;;;0.60;0.23;;;18.70;99.90;;;;;;5152086;27;20471;-55
2023/09/20 07:25:17;;;;;;;0.50;0.30;;;18.70;99.90;;;;;;5117814;27;20438;-55
2023/09/20 07:27:45;;;;;;;0.73;0.30;;;18.90;99.90;;;;;;5135674;27;20426;-53
2023/09/20 07:30:17;;;;;;;0.70;0.40;;;18.90;99.90;;;;;;5131341;27;20588;-54
2023/09/20 07:32:45;;;;;;;1.10;0.40;;;19.00;99.90;;;;;;5150910;27;20404;-57
2023/09/20 07:35:26;;;;;;;1.10;0.30;;;19.10;99.90;;;;;;5137427;27;20688;-58
2023/09/20 07:37:56;;;;;;;0.60;0.30;;;19.10;99.90;;;;;;5155185;27;20424;-54
2023/09/20 07:40:28;;;;;;;0.60;0.30;;;19.10;99.90;;;;;;5143426;27;20425;-58
2023/09/20 07:42:59;;;;;;;0.63;0.30;;;19.20;99.90;;;;;;5153839;27;20483;-57
2023/09/20 07:45:31;;;;;;;0.90;0.30;;;19.20;99.90;;;;;;5154037;27;20452;-57
2023/09/20 07:48:00;;;;;;;1.00;0.40;;;19.20;99.90;;;;;;5147342;27;20729;-54
2023/09/20 07:50:30;;;;;;;0.95;0.40;;;19.20;99.90;;;;;;5133741;27;20487;-57
2023/09/20 07:52:59;;;;;;;0.60;0.40;;;19.40;99.90;;;;;;5132573;27;20509;-57
2023/09/20 07:55:27;;;;;;;1.40;0.40;;;19.40;99.90;;;;;;5148115;27;20429;-56
2023/09/20 07:57:58;;;;;;;0.70;0.32;;;19.40;99.90;;;;;;5154234;27;20488;-57
2023/09/20 08:00:24;;;;;;;0.90;0.30;;;19.40;99.90;;;;;;5150912;27;20432;-57
2023/09/20 08:02:54;;;;;;;0.70;0.40;;;19.40;99.90;;;;;;5148125;27;20813;-57
2023/09/20 08:05:23;;;;;;;0.80;0.40;;;19.50;99.90;;;;;;5137854;27;20428;-56
2023/09/20 08:07:51;;;;;;;0.70;0.40;;;19.70;99.90;;;;;;5153573;27;20435;-57
2023/09/20 08:10:19;;;;;;;0.63;0.30;;;19.70;99.90;;;;;;5143752;27;20434;-56
2023/09/20 08:12:46;;;;;;;1.20;0.35;;;19.90;99.90;;;;;;5131298;27;20522;-55
2023/09/20 08:15:14;;;;;;;1.03;0.40;;;20.10;99.90;;;;;;5130988;27;20623;-57
2023/09/20 08:20:26;;;;;;;0.60;0.38;;;20.40;99.90;;;;;;5134249;27;20411;-57
2023/09/20 09:01:37;;;;;;;0.85;0.30;;;21.80;99.90;;;;;;5133763;27;20803;-57
2023/09/20 09:04:08;;;;;;;0.60;0.30;;;21.90;99.90;;;;;;5143925;27;20864;-57
2023/09/20 09:06:35;;;;;;;0.60;0.30;;;22.10;99.90;;;;;;5132094;28;20841;-58
2023/09/20 09:09:03;;;;;;;0.77;0.30;;;21.90;99.90;;;;;;5130785;28;20430;-57
2023/09/20 09:11:32;;;;;;;0.70;0.30;;;21.80;99.90;;;;;;5127051;27;20426;-57
2023/09/20 09:14:00;;;;;;;0.60;0.30;;;21.80;99.90;;;;;;5129140;27;20430;-57
2023/09/20 09:16:32;;;;;;;0.55;0.30;;;21.90;99.90;;;;;;5128099;27;20445;-56
2023/09/20 09:19:00;;;;;;;0.70;0.30;;;21.90;99.90;;;;;;5129212;28;20418;-57
2023/09/20 09:21:27;;;;;;;0.60;0.30;;;21.80;99.90;;;;;;5129290;28;21104;-57
2023/09/20 09:23:55;;;;;;;1.10;0.30;;;21.80;99.90;;;;;;5130830;28;20455;-57
2023/09/20 09:26:23;;;;;;;0.60;0.40;;;21.90;99.90;;;;;;5128401;27;20426;-57
2023/09/20 09:28:52;;;;;;;0.90;0.30;;;21.90;99.90;;;;;;5127775;27;20578;-58
2023/09/20 09:31:19;;;;;;;0.60;0.30;;;21.90;99.90;;;;;;5129164;28;20425;-59
2023/09/20 09:33:47;;;;;;;0.50;0.30;;;21.80;99.90;;;;;;5131942;27;20921;-56
2023/09/20 09:36:14;;;;;;;0.70;0.35;;;21.90;99.90;;;;;;5145651;27;20461;-54
2023/09/20 09:38:41;;;;;;;1.00;0.30;;;22.00;99.90;;;;;;5132610;27;20419;-59
2023/09/20 09:41:10;;;;;;;0.60;0.30;;;22.00;99.90;;;;;;5131046;27;20462;-58
2023/09/20 09:43:38;;;;;;;0.60;0.30;;;22.00;99.90;;;;;;5131877;27;20850;-58
2023/09/20 09:46:08;;;;;;;0.68;0.30;;;22.10;99.90;;;;;;5133624;27;20517;-59
2023/09/20 09:48:38;;;;;;;1.40;0.30;;;22.10;99.90;;;;;;5123203;27;20467;-58
2023/09/20 09:51:06;;;;;;;0.70;0.40;;;22.30;99.90;;;;;;5137700;27;20887;-58
2023/09/20 09:53:36;;;;;;;0.60;0.30;;;22.30;99.90;;;;;;5155584;27;20419;-58
2023/09/20 09:56:05;;;;;;;0.60;0.30;;;22.40;99.90;;;;;;5128777;27;20428;-58
2023/09/20 09:58:33;;;;;;;1.60;0.30;;;22.40;99.90;;;;;;5111766;27;20947;-58
2023/09/20 10:01:05;;;;;;;0.77;0.30;;;22.50;99.90;;;;;;5112883;27;20521;-57
2023/09/20 10:03:40;;;;;;;0.80;0.40;;;22.60;99.90;;;;;;5109978;28;20455;-59
2023/09/20 10:06:12;;;;;;;0.60;0.40;;;22.70;99.90;;;;;;5111115;28;20440;-59
2023/09/20 10:08:41;;;;;;;0.70;0.30;;;23.00;99.90;;;;;;5110062;28;20428;-58
2023/09/20 10:11:08;;;;;;;0.60;0.30;;;23.30;99.90;;;;;;5115082;28;20419;-58
2023/09/20 10:13:37;;;;;;;0.65;0.30;;;23.40;99.90;;;;;;5114125;27;20439;-59
2023/09/20 10:16:06;;;;;;;0.80;0.40;;;23.60;99.90;;;;;;5129368;27;20449;-59
2023/09/20 10:18:51;;;;;;;0.50;0.30;;;23.60;99.90;;;;;;5131565;27;20440;-59
2023/09/20 10:21:21;;;;;;;0.80;0.40;;;23.70;99.90;;;;;;5106546;28;20450;-59
2023/09/20 10:23:48;;;;;;;0.63;0.30;;;23.80;99.90;;;;;;5116489;27;20432;-58
2023/09/20 10:26:17;;;;;;;0.70;0.30;;;24.00;99.90;;;;;;5104217;28;20440;-59
2023/09/20 10:28:46;;;;;;;0.70;0.40;;;24.10;1.00;;;;;;5104479;28;20815;-58
2023/09/20 10:31:16;;;;;;;0.60;0.40;;;24.10;1.00;;;;;;5106578;28;20439;-59
2023/09/20 10:33:48;;;;;;;1.40;0.40;;;24.30;1.00;;;;;;5104146;27;20441;-59
2023/09/20 10:36:19;;;;;;;0.60;0.30;;;24.70;1.00;;;;;;5101666;28;20444;-59
2023/09/20 10:38:48;;;;;;;0.90;0.40;;;24.70;1.00;;;;;;5102741;27;20454;-59
2023/09/20 10:41:16;;;;;;;1.20;0.30;;;24.70;1.00;;;;;;5107579;28;20427;-54
2023/09/20 10:43:48;;;;;;;0.80;0.50;;;24.70;1.00;;;;;;5107693;27;20947;-54
2023/09/20 10:46:18;;;;;;;0.77;0.37;;;24.80;1.00;;;;;;5105468;28;20472;-52
2023/09/20 10:48:51;;;;;;;1.20;0.50;;;24.80;1.00;;;;;;5104406;28;20436;-50
2023/09/20 10:51:43;;;;;;;1.10;0.40;;;24.90;1.00;;;;;;5107844;27;20436;-53
2023/09/20 10:54:36;;;;;;;0.70;0.40;;;25.00;1.00;;;;;;5113285;27;20489;-52
2023/09/20 10:57:07;;;;;;;0.70;0.40;;;25.10;1.00;;;;;;5082648;28;20503;-49
2023/09/20 10:59:36;;;;;;;1.10;0.40;;;25.10;1.00;;;;;;5092972;28;20432;-53
2023/09/20 11:02:09;;;;;;;0.60;0.40;;;25.20;1.00;;;;;;5095946;28;20457;-53
2023/09/20 11:04:41;;;;;;;0.98;0.50;;;25.40;1.00;;;;;;5103206;28;20847;-52
2023/09/20 11:07:09;;;;;;;0.70;0.40;;;25.40;1.00;;;;;;5111085;28;20431;-49
2023/09/20 11:09:38;;;;;;;0.80;0.40;;;25.50;1.00;;;;;;5097159;28;20429;-54
2023/09/20 11:12:09;;;;;;;0.70;0.40;;;25.40;1.00;;;;;;5090725;28;20497;-50
2023/09/20 11:14:39;;;;;;;0.80;0.40;;;25.50;1.00;;;;;;5100899;28;20725;-51
2023/09/20 11:17:06;;;;;;;0.82;0.45;;;25.40;1.00;;;;;;5095542;28;20432;-53
2023/09/20 11:19:35;;;;;;;0.90;0.40;;;25.60;1.00;;;;;;5096215;28;20422;-53
2023/09/20 11:22:05;;;;;;;0.80;0.40;;;25.60;1.00;;;;;;5092417;28;20430;-47
2023/09/20 11:24:33;;;;;;;0.60;0.40;;;25.70;1.00;;;;;;5085241;28;20469;-53
2023/09/20 11:27:00;;;;;;;0.70;0.40;;;25.70;1.00;;;;;;5097707;28;20921;-51
2023/09/20 11:29:27;;;;;;;0.75;0.40;;;25.80;1.00;;;;;;5094633;28;20432;-52
2023/09/20 11:31:58;;;;;;;0.70;0.40;;;25.90;1.00;;;;;;5087215;28;20433;-51
2023/09/20 11:34:28;;;;;;;0.60;0.40;;;26.20;1.00;;;;;;5077382;28;20426;-52
2023/09/20 11:36:57;;;;;;;0.70;0.40;;;25.80;1.00;;;;;;5094062;28;20433;-50
2023/09/20 11:39:31;;;;;;;0.70;0.40;;;26.10;1.00;;;;;;5095845;28;20837;-52
2023/09/20 11:42:01;;;;;;;0.77;0.40;;;26.40;1.00;;;;;;5105428;28;20441;-52
2023/09/20 11:44:28;;;;;;;0.70;0.40;;;26.50;1.00;;;;;;5092290;28;20414;-53
2023/09/20 11:46:57;;;;;;;0.60;0.40;;;26.20;1.00;;;;;;5100611;28;20524;-51
2023/09/20 11:49:26;;;;;;;0.70;0.40;;;26.30;1.00;;;;;;5101662;28;20432;-53
2023/09/20 11:51:53;;;;;;;0.55;0.30;;;26.30;1.00;;;;;;5091709;28;20437;-54
2023/09/20 11:54:27;;;;;;;0.80;0.30;;;26.20;1.00;;;;;;5090820;28;20861;-50
2023/09/20 11:56:59;;;;;;;0.60;0.32;;;26.10;1.00;;;;;;5107699;27;20419;-54
2023/09/20 11:59:27;;;;;;;0.40;0.30;;;26.00;1.00;;;;;;5133358;27;20410;-54
2023/09/20 12:01:54;;;;;;;0.77;0.40;;;26.00;1.00;;;;;;5133861;27;20429;-55
2023/09/20 12:04:21;;;;;;;0.60;0.30;;;25.90;1.00;;;;;;5103588;27;20850;-50
2023/09/20 12:06:53;;;;;;;0.70;0.30;;;26.00;1.00;;;;;;5111367;27;20436;-55
2023/09/20 12:09:21;;;;;;;0.80;0.30;;;26.30;1.00;;;;;;5111479;28;20570;-48
2023/09/20 12:11:49;;;;;;;0.50;0.20;;;26.50;1.00;;;;;;5110218;28;20420;-55
2023/09/20 12:14:18;;;;;;;0.90;0.30;;;26.60;1.00;;;;;;5119384;27;20483;-51
2023/09/20 12:16:48;;;;;;;0.40;0.28;;;26.50;1.00;;;;;;5115448;27;20534;-54
2023/09/20 12:19:17;;;;;;;0.70;0.30;;;26.30;1.00;;;;;;5114005;28;20424;-52
2023/09/20 12:21:45;;;;;;;0.50;0.30;;;26.40;1.00;;;;;;5111108;28;20431;-53
2023/09/20 12:24:13;;;;;;;0.57;0.30;;;26.20;1.00;;;;;;5109902;28;20420;-53
2023/09/20 12:26:41;;;;;;;1.10;0.30;;;26.30;1.00;;;;;;5109695;28;20412;-53
2023/09/20 12:29:09;;;;;;;0.60;0.40;;;26.20;1.00;;;;;;5108879;28;20820;-55
2023/09/20 12:31:37;;;;;;;0.65;0.30;;;26.00;1.00;;;;;;5107770;28;20444;-53
2023/09/20 12:34:05;;;;;;;1.70;0.50;;;26.20;1.00;;;;;;5120763;27;20517;-52
2023/09/20 12:36:32;;;;;;;0.60;0.30;;;26.30;1.00;;;;;;5116871;27;20781;-51
2023/09/20 12:39:01;;;;;;;0.50;0.30;;;26.40;1.00;;;;;;5108269;28;20811;-50
2023/09/20 12:41:28;;;;;;;0.47;0.30;;;26.40;1.00;;;;;;5108425;28;20424;-53
2023/09/20 12:43:55;;;;;;;1.30;0.30;;;26.20;1.00;;;;;;5109743;28;20968;-52
2023/09/20 12:46:24;;;;;;;0.50;0.30;;;26.20;1.00;;;;;;5111075;28;20560;-52
2023/09/20 12:48:54;;;;;;;0.50;0.30;;;26.20;1.00;;;;;;5104116;27;20503;-53
2023/09/20 12:51:21;;;;;;;0.50;0.20;;;26.30;1.00;;;;;;5129743;27;20469;-54
2023/09/20 12:53:49;;;;;;;0.60;0.30;;;26.30;1.00;;;;;;5130373;27;20491;-52
2023/09/20 12:56:16;;;;;;;0.50;0.30;;;26.60;1.00;;;;;;5130758;27;20453;-53
2023/09/20 12:58:43;;;;;;;0.50;0.30;;;26.70;1.00;;;;;;5132314;27;20433;-48
2023/09/20 13:01:11;;;;;;;0.50;0.20;;;26.60;1.00;;;;;;5132571;27;20499;-52
2023/09/20 13:03:40;;;;;;;0.50;0.30;;;26.50;1.00;;;;;;5130409;27;20540;-53
2023/09/20 13:06:11;;;;;;;0.60;0.30;;;26.50;1.00;;;;;;5129314;27;20506;-54
2023/09/20 13:08:39;;;;;;;0.40;0.20;;;26.50;1.00;;;;;;5128700;28;20423;-51
2023/09/20 13:11:10;;;;;;;0.50;0.20;;;26.40;1.00;;;;;;5129326;28;20843;-52
2023/09/20 13:13:38;;;;;;;0.50;0.20;;;26.30;1.00;;;;;;5128619;28;20481;-53
2023/09/20 13:16:06;;;;;;;0.65;0.30;;;26.20;1.00;;;;;;5129945;28;20414;-53
2023/09/20 13:18:36;;;;;;;0.50;0.30;;;26.00;1.00;;;;;;5131520;28;20913;-55
2023/09/20 13:21:04;;;;;;;0.60;0.30;;;26.00;1.00;;;;;;5134671;27;20491;-53
2023/09/20 13:23:33;;;;;;;0.50;0.30;;;26.00;1.00;;;;;;5135006;27;20414;-53
2023/09/20 13:26:03;;;;;;;0.60;0.20;;;26.00;1.00;;;;;;5135331;27;20410;-51
2023/09/20 13:28:31;;;;;;;0.50;0.20;;;25.90;1.00;;;;;;5130009;27;20428;-52
2023/09/20 13:30:59;;;;;;;0.80;0.20;;;26.00;1.00;;;;;;5134075;27;20729;-53
2023/09/20 13:33:26;;;;;;;0.60;0.30;;;26.00;1.00;;;;;;5133430;27;20811;-53
2023/09/20 13:35:55;;;;;;;0.57;0.30;;;26.00;1.00;;;;;;5135633;27;20420;-51
2023/09/20 13:38:23;;;;;;;0.40;0.20;;;25.90;1.00;;;;;;5133680;27;20635;-51
2023/09/20 13:40:53;;;;;;;0.45;0.20;;;26.00;1.00;;;;;;5135310;27;20628;-50
2023/09/20 13:43:20;;;;;;;0.70;0.20;;;25.80;1.00;;;;;;5136408;27;20433;-54